sensor_id;sensor_type;location;lat;lon;timestamp;P1;durP1;ratioP1;P2;durP2;ratioP2
27293;SDS011;14785;52.556;13.430;2023-07-31T00:00:11;4.07;;;3.77;;
27293;SDS011;14785;52.556;13.430;2023-07-31T00:02:37;4.13;;;3.83;;
27293;SDS011;14785;52.556;13.430;2023-07-31T00:05:04;4.43;;;4.03;;
27293;SDS011;14785;52.556;13.430;2023-07-31T00:07:29;4.22;;;3.92;;
27293;SDS011;14785;52.556;13.430;2023-07-31T00:09:55;4.65;;;3.95;;
27293;SDS011;14785;52.556;13.430;2023-07-31T00:14:48;5.10;;;4.70;;
27293;SDS011;14785;52.556;13.430;2023-07-31T00:17:16;4.40;;;4.15;;
27293;SDS011;14785;52.556;13.430;2023-07-31T00:19:42;4.25;;;4.03;;
27293;SDS011;14785;52.556;13.430;2023-07-31T00:22:07;5.47;;;4.70;;
27293;SDS011;14785;52.556;13.430;2023-07-31T00:24:32;4.33;;;4.03;;
27293;SDS011;14785;52.556;13.430;2023-07-31T00:26:58;4.40;;;4.10;;
27293;SDS011;14785;52.556;13.430;2023-07-31T00:29:24;4.60;;;3.70;;
27293;SDS011;14785;52.556;13.430;2023-07-31T00:31:50;4.87;;;4.47;;
27293;SDS011;14785;52.556;13.430;2023-07-31T00:34:16;4.45;;;4.15;;
27293;SDS011;14785;52.556;13.430;2023-07-31T00:36:41;4.63;;;4.33;;
27293;SDS011;14785;52.556;13.430;2023-07-31T00:39:07;4.73;;;4.33;;
27293;SDS011;14785;52.556;13.430;2023-07-31T00:41:33;4.80;;;4.50;;
27293;SDS011;14785;52.556;13.430;2023-07-31T00:44:00;4.43;;;4.13;;
27293;SDS011;14785;52.556;13.430;2023-07-31T00:46:27;5.05;;;4.65;;
27293;SDS011;14785;52.556;13.430;2023-07-31T00:48:52;4.15;;;3.80;;
27293;SDS011;14785;52.556;13.430;2023-07-31T00:51:17;4.43;;;4.13;;
27293;SDS011;14785;52.556;13.430;2023-07-31T00:53:43;4.67;;;4.37;;
27293;SDS011;14785;52.556;13.430;2023-07-31T00:56:09;4.63;;;4.32;;
27293;SDS011;14785;52.556;13.430;2023-07-31T00:58:35;4.55;;;4.25;;
27293;SDS011;14785;52.556;13.430;2023-07-31T01:01:01;4.77;;;4.40;;
27293;SDS011;14785;52.556;13.430;2023-07-31T01:03:27;4.95;;;4.50;;
27293;SDS011;14785;52.556;13.430;2023-07-31T01:06:14;4.90;;;4.37;;
27293;SDS011;14785;52.556;13.430;2023-07-31T01:13:54;4.75;;;4.35;;
27293;SDS011;14785;52.556;13.430;2023-07-31T01:16:20;4.57;;;4.20;;
27293;SDS011;14785;52.556;13.430;2023-07-31T01:18:46;4.67;;;4.37;;
27293;SDS011;14785;52.556;13.430;2023-07-31T01:26:38;4.05;;;3.85;;
27293;SDS011;14785;52.556;13.430;2023-07-31T01:31:44;4.45;;;4.15;;
27293;SDS011;14785;52.556;13.430;2023-07-31T01:34:12;4.93;;;4.45;;
27293;SDS011;14785;52.556;13.430;2023-07-31T01:36:41;5.80;;;4.30;;
27293;SDS011;14785;52.556;13.430;2023-07-31T01:39:07;4.37;;;4.10;;
27293;SDS011;14785;52.556;13.430;2023-07-31T01:41:33;4.30;;;4.10;;
27293;SDS011;14785;52.556;13.430;2023-07-31T01:43:59;5.03;;;4.53;;
27293;SDS011;14785;52.556;13.430;2023-07-31T01:46:26;4.57;;;4.28;;
27293;SDS011;14785;52.556;13.430;2023-07-31T01:51:18;4.27;;;4.07;;
27293;SDS011;14785;52.556;13.430;2023-07-31T01:53:43;4.43;;;4.13;;
27293;SDS011;14785;52.556;13.430;2023-07-31T01:56:08;5.27;;;4.83;;
27293;SDS011;14785;52.556;13.430;2023-07-31T01:58:34;5.00;;;4.60;;
27293;SDS011;14785;52.556;13.430;2023-07-31T02:00:59;4.83;;;4.40;;
27293;SDS011;14785;52.556;13.430;2023-07-31T02:03:28;5.00;;;4.60;;
27293;SDS011;14785;52.556;13.430;2023-07-31T02:05:53;4.50;;;4.20;;
27293;SDS011;14785;52.556;13.430;2023-07-31T02:08:19;5.45;;;5.00;;
27293;SDS011;14785;52.556;13.430;2023-07-31T02:10:44;5.23;;;4.93;;
27293;SDS011;14785;52.556;13.430;2023-07-31T02:13:09;4.70;;;4.40;;
27293;SDS011;14785;52.556;13.430;2023-07-31T02:15:36;4.60;;;4.30;;
27293;SDS011;14785;52.556;13.430;2023-07-31T02:18:02;4.55;;;4.25;;
27293;SDS011;14785;52.556;13.430;2023-07-31T02:20:33;4.95;;;4.65;;
27293;SDS011;14785;52.556;13.430;2023-07-31T02:22:59;4.45;;;4.25;;
27293;SDS011;14785;52.556;13.430;2023-07-31T02:25:24;5.00;;;4.70;;
27293;SDS011;14785;52.556;13.430;2023-07-31T02:27:49;4.63;;;4.33;;
27293;SDS011;14785;52.556;13.430;2023-07-31T02:30:15;5.00;;;4.60;;
27293;SDS011;14785;52.556;13.430;2023-07-31T02:32:41;5.10;;;4.80;;
27293;SDS011;14785;52.556;13.430;2023-07-31T02:35:06;5.13;;;4.73;;
27293;SDS011;14785;52.556;13.430;2023-07-31T02:37:33;5.93;;;5.43;;
27293;SDS011;14785;52.556;13.430;2023-07-31T02:39:59;4.60;;;4.30;;
27293;SDS011;14785;52.556;13.430;2023-07-31T02:42:25;5.03;;;4.72;;
27293;SDS011;14785;52.556;13.430;2023-07-31T02:44:51;5.50;;;5.20;;
27293;SDS011;14785;52.556;13.430;2023-07-31T02:47:20;5.57;;;5.18;;
27293;SDS011;14785;52.556;13.430;2023-07-31T02:49:46;5.72;;;5.30;;
27293;SDS011;14785;52.556;13.430;2023-07-31T02:52:12;5.83;;;5.40;;
27293;SDS011;14785;52.556;13.430;2023-07-31T02:54:37;5.40;;;5.03;;
27293;SDS011;14785;52.556;13.430;2023-07-31T02:57:03;5.70;;;5.20;;
27293;SDS011;14785;52.556;13.430;2023-07-31T02:59:29;5.47;;;5.07;;
27293;SDS011;14785;52.556;13.430;2023-07-31T03:01:55;5.72;;;5.32;;
27293;SDS011;14785;52.556;13.430;2023-07-31T03:04:20;5.50;;;5.17;;
27293;SDS011;14785;52.556;13.430;2023-07-31T03:06:46;5.40;;;5.10;;
27293;SDS011;14785;52.556;13.430;2023-07-31T03:09:11;5.50;;;5.20;;
27293;SDS011;14785;52.556;13.430;2023-07-31T03:11:37;6.13;;;5.63;;
27293;SDS011;14785;52.556;13.430;2023-07-31T03:14:02;5.60;;;5.30;;
27293;SDS011;14785;52.556;13.430;2023-07-31T03:16:27;5.60;;;5.23;;
27293;SDS011;14785;52.556;13.430;2023-07-31T03:18:53;5.70;;;5.30;;
27293;SDS011;14785;52.556;13.430;2023-07-31T03:23:44;5.40;;;5.10;;
27293;SDS011;14785;52.556;13.430;2023-07-31T03:26:09;5.73;;;5.40;;
27293;SDS011;14785;52.556;13.430;2023-07-31T03:28:35;5.22;;;4.93;;
27293;SDS011;14785;52.556;13.430;2023-07-31T03:31:01;6.03;;;5.47;;
27293;SDS011;14785;52.556;13.430;2023-07-31T03:33:27;5.60;;;5.20;;
27293;SDS011;14785;52.556;13.430;2023-07-31T03:35:52;5.82;;;5.38;;
27293;SDS011;14785;52.556;13.430;2023-07-31T03:38:18;5.30;;;4.90;;
27293;SDS011;14785;52.556;13.430;2023-07-31T03:40:43;5.60;;;5.20;;
27293;SDS011;14785;52.556;13.430;2023-07-31T03:43:09;5.47;;;4.97;;
27293;SDS011;14785;52.556;13.430;2023-07-31T03:45:34;5.33;;;5.03;;
27293;SDS011;14785;52.556;13.430;2023-07-31T03:48:00;5.32;;;4.95;;
27293;SDS011;14785;52.556;13.430;2023-07-31T03:50:26;5.40;;;5.10;;
27293;SDS011;14785;52.556;13.430;2023-07-31T03:52:51;5.80;;;5.40;;
27293;SDS011;14785;52.556;13.430;2023-07-31T03:55:17;4.82;;;4.53;;
27293;SDS011;14785;52.556;13.430;2023-07-31T03:57:43;12.18;;;5.93;;
27293;SDS011;14785;52.556;13.430;2023-07-31T04:00:08;6.47;;;5.87;;
27293;SDS011;14785;52.556;13.430;2023-07-31T04:02:34;6.70;;;5.65;;
27293;SDS011;14785;52.556;13.430;2023-07-31T04:05:00;11.90;;;7.73;;
27293;SDS011;14785;52.556;13.430;2023-07-31T04:07:25;8.00;;;7.20;;
27293;SDS011;14785;52.556;13.430;2023-07-31T04:09:50;8.77;;;8.00;;
27293;SDS011;14785;52.556;13.430;2023-07-31T04:12:16;7.90;;;7.03;;
27293;SDS011;14785;52.556;13.430;2023-07-31T04:14:41;6.83;;;6.17;;
27293;SDS011;14785;52.556;13.430;2023-07-31T04:17:06;13.20;;;12.27;;
27293;SDS011;14785;52.556;13.430;2023-07-31T04:19:32;14.30;;;9.60;;
27293;SDS011;14785;52.556;13.430;2023-07-31T04:21:57;14.20;;;13.13;;
27293;SDS011;14785;52.556;13.430;2023-07-31T04:24:23;14.50;;;13.33;;
27293;SDS011;14785;52.556;13.430;2023-07-31T04:26:51;15.05;;;13.52;;
27293;SDS011;14785;52.556;13.430;2023-07-31T04:29:17;8.20;;;7.28;;
27293;SDS011;14785;52.556;13.430;2023-07-31T04:31:43;14.40;;;8.60;;
27293;SDS011;14785;52.556;13.430;2023-07-31T04:34:08;10.87;;;7.10;;
27293;SDS011;14785;52.556;13.430;2023-07-31T04:36:34;9.23;;;8.43;;
27293;SDS011;14785;52.556;13.430;2023-07-31T04:39:00;6.68;;;6.07;;
27293;SDS011;14785;52.556;13.430;2023-07-31T04:41:26;8.30;;;5.38;;
27293;SDS011;14785;52.556;13.430;2023-07-31T04:43:51;7.67;;;5.47;;
27293;SDS011;14785;52.556;13.430;2023-07-31T04:46:16;9.47;;;7.17;;
27293;SDS011;14785;52.556;13.430;2023-07-31T04:48:42;7.17;;;5.93;;
27293;SDS011;14785;52.556;13.430;2023-07-31T04:51:07;5.93;;;5.32;;
27293;SDS011;14785;52.556;13.430;2023-07-31T04:55:59;9.73;;;5.57;;
27293;SDS011;14785;52.556;13.430;2023-07-31T04:58:24;6.93;;;5.17;;
27293;SDS011;14785;52.556;13.430;2023-07-31T05:00:50;6.93;;;6.07;;
27293;SDS011;14785;52.556;13.430;2023-07-31T05:03:15;6.03;;;5.03;;
27293;SDS011;14785;52.556;13.430;2023-07-31T05:05:42;5.32;;;4.82;;
27293;SDS011;14785;52.556;13.430;2023-07-31T05:08:07;9.97;;;5.03;;
27293;SDS011;14785;52.556;13.430;2023-07-31T05:10:33;6.27;;;5.70;;
27293;SDS011;14785;52.556;13.430;2023-07-31T05:12:58;9.37;;;5.77;;
27293;SDS011;14785;52.556;13.430;2023-07-31T05:15:23;7.90;;;6.70;;
27293;SDS011;14785;52.556;13.430;2023-07-31T05:17:49;6.80;;;5.17;;
27293;SDS011;14785;52.556;13.430;2023-07-31T05:20:14;7.23;;;5.77;;
27293;SDS011;14785;52.556;13.430;2023-07-31T05:22:40;6.77;;;5.17;;
27293;SDS011;14785;52.556;13.430;2023-07-31T05:25:05;7.13;;;5.73;;
27293;SDS011;14785;52.556;13.430;2023-07-31T05:27:31;5.75;;;5.30;;
27293;SDS011;14785;52.556;13.430;2023-07-31T05:29:57;7.43;;;6.50;;
27293;SDS011;14785;52.556;13.430;2023-07-31T05:32:22;8.47;;;7.67;;
27293;SDS011;14785;52.556;13.430;2023-07-31T05:34:50;5.87;;;5.40;;
27293;SDS011;14785;52.556;13.430;2023-07-31T05:37:17;10.32;;;5.60;;
27293;SDS011;14785;52.556;13.430;2023-07-31T05:39:42;5.87;;;5.13;;
27293;SDS011;14785;52.556;13.430;2023-07-31T05:42:07;4.93;;;4.50;;
27293;SDS011;14785;52.556;13.430;2023-07-31T05:44:33;7.97;;;5.33;;
27293;SDS011;14785;52.556;13.430;2023-07-31T05:46:58;5.80;;;4.87;;
27293;SDS011;14785;52.556;13.430;2023-07-31T05:49:23;5.77;;;5.37;;
27293;SDS011;14785;52.556;13.430;2023-07-31T05:51:49;5.77;;;4.80;;
27293;SDS011;14785;52.556;13.430;2023-07-31T05:54:14;7.43;;;5.13;;
27293;SDS011;14785;52.556;13.430;2023-07-31T05:56:39;7.80;;;5.03;;
27293;SDS011;14785;52.556;13.430;2023-07-31T05:59:05;6.87;;;4.73;;
27293;SDS011;14785;52.556;13.430;2023-07-31T06:01:30;5.43;;;5.00;;
27293;SDS011;14785;52.556;13.430;2023-07-31T06:03:56;5.57;;;5.18;;
27293;SDS011;14785;52.556;13.430;2023-07-31T06:06:21;5.53;;;4.40;;
27293;SDS011;14785;52.556;13.430;2023-07-31T06:08:47;4.80;;;4.50;;
27293;SDS011;14785;52.556;13.430;2023-07-31T06:11:12;5.13;;;4.63;;
27293;SDS011;14785;52.556;13.430;2023-07-31T06:13:37;5.07;;;4.67;;
27293;SDS011;14785;52.556;13.430;2023-07-31T06:16:03;4.87;;;4.37;;
27293;SDS011;14785;52.556;13.430;2023-07-31T06:18:31;5.40;;;4.13;;
27293;SDS011;14785;52.556;13.430;2023-07-31T06:20:57;4.38;;;4.07;;
27293;SDS011;14785;52.556;13.430;2023-07-31T06:23:22;5.60;;;4.40;;
27293;SDS011;14785;52.556;13.430;2023-07-31T06:25:48;4.83;;;4.27;;
27293;SDS011;14785;52.556;13.430;2023-07-31T06:28:13;5.23;;;4.73;;
27293;SDS011;14785;52.556;13.430;2023-07-31T06:30:39;6.23;;;4.90;;
27293;SDS011;14785;52.556;13.430;2023-07-31T06:33:04;4.97;;;4.57;;
27293;SDS011;14785;52.556;13.430;2023-07-31T06:35:29;5.20;;;4.40;;
27293;SDS011;14785;52.556;13.430;2023-07-31T06:37:55;4.47;;;4.07;;
27293;SDS011;14785;52.556;13.430;2023-07-31T06:40:20;5.20;;;4.63;;
27293;SDS011;14785;52.556;13.430;2023-07-31T06:42:47;4.45;;;4.05;;
27293;SDS011;14785;52.556;13.430;2023-07-31T06:45:12;4.87;;;4.40;;
27293;SDS011;14785;52.556;13.430;2023-07-31T06:47:37;4.50;;;4.10;;
27293;SDS011;14785;52.556;13.430;2023-07-31T06:50:03;4.60;;;4.23;;
27293;SDS011;14785;52.556;13.430;2023-07-31T06:52:29;5.20;;;4.63;;
27293;SDS011;14785;52.556;13.430;2023-07-31T06:55:08;5.13;;;4.63;;
27293;SDS011;14785;52.556;13.430;2023-07-31T06:57:44;4.10;;;3.80;;
27293;SDS011;14785;52.556;13.430;2023-07-31T07:02:36;4.53;;;4.18;;
27293;SDS011;14785;52.556;13.430;2023-07-31T07:05:01;4.63;;;4.23;;
27293;SDS011;14785;52.556;13.430;2023-07-31T07:07:27;4.18;;;3.85;;
27293;SDS011;14785;52.556;13.430;2023-07-31T07:09:52;4.50;;;4.10;;
27293;SDS011;14785;52.556;13.430;2023-07-31T07:12:18;5.47;;;4.30;;
27293;SDS011;14785;52.556;13.430;2023-07-31T07:14:43;5.37;;;4.60;;
27293;SDS011;14785;52.556;13.430;2023-07-31T07:17:10;4.25;;;3.95;;
27293;SDS011;14785;52.556;13.430;2023-07-31T07:19:36;4.37;;;4.07;;
27293;SDS011;14785;52.556;13.430;2023-07-31T07:22:01;4.67;;;4.10;;
27293;SDS011;14785;52.556;13.430;2023-07-31T07:24:27;4.77;;;4.33;;
27293;SDS011;14785;52.556;13.430;2023-07-31T07:26:52;4.50;;;4.10;;
27293;SDS011;14785;52.556;13.430;2023-07-31T07:29:18;7.33;;;4.37;;
27293;SDS011;14785;52.556;13.430;2023-07-31T07:31:43;4.10;;;3.80;;
27293;SDS011;14785;52.556;13.430;2023-07-31T07:34:09;4.40;;;4.10;;
27293;SDS011;14785;52.556;13.430;2023-07-31T07:36:34;4.40;;;4.00;;
27293;SDS011;14785;52.556;13.430;2023-07-31T07:38:59;4.50;;;4.10;;
27293;SDS011;14785;52.556;13.430;2023-07-31T07:41:25;4.70;;;4.20;;
27293;SDS011;14785;52.556;13.430;2023-07-31T07:43:50;4.70;;;4.30;;
27293;SDS011;14785;52.556;13.430;2023-07-31T07:46:16;4.25;;;3.95;;
27293;SDS011;14785;52.556;13.430;2023-07-31T07:48:41;5.00;;;4.60;;
27293;SDS011;14785;52.556;13.430;2023-07-31T07:51:07;4.37;;;4.03;;
27293;SDS011;14785;52.556;13.430;2023-07-31T07:53:32;4.63;;;3.73;;
27293;SDS011;14785;52.556;13.430;2023-07-31T07:55:57;4.83;;;4.53;;
27293;SDS011;14785;52.556;13.430;2023-07-31T07:58:23;4.53;;;4.23;;
27293;SDS011;14785;52.556;13.430;2023-07-31T08:00:50;5.17;;;4.80;;
27293;SDS011;14785;52.556;13.430;2023-07-31T08:03:16;6.68;;;6.22;;
27293;SDS011;14785;52.556;13.430;2023-07-31T08:05:42;6.30;;;5.90;;
27293;SDS011;14785;52.556;13.430;2023-07-31T08:08:13;5.55;;;5.25;;
27293;SDS011;14785;52.556;13.430;2023-07-31T08:10:40;5.78;;;5.38;;
27293;SDS011;14785;52.556;13.430;2023-07-31T08:13:05;5.23;;;4.93;;
27293;SDS011;14785;52.556;13.430;2023-07-31T08:15:31;4.77;;;4.40;;
27293;SDS011;14785;52.556;13.430;2023-07-31T08:17:56;4.93;;;4.63;;
27293;SDS011;14785;52.556;13.430;2023-07-31T08:20:21;4.40;;;4.10;;
27293;SDS011;14785;52.556;13.430;2023-07-31T08:22:47;4.30;;;4.03;;
27293;SDS011;14785;52.556;13.430;2023-07-31T08:25:12;4.13;;;3.90;;
27293;SDS011;14785;52.556;13.430;2023-07-31T08:27:37;4.50;;;4.20;;
27293;SDS011;14785;52.556;13.430;2023-07-31T08:30:03;4.63;;;4.33;;
27293;SDS011;14785;52.556;13.430;2023-07-31T08:32:29;5.28;;;4.78;;
27293;SDS011;14785;52.556;13.430;2023-07-31T08:34:54;5.30;;;4.90;;
27293;SDS011;14785;52.556;13.430;2023-07-31T08:37:19;5.07;;;4.77;;
27293;SDS011;14785;52.556;13.430;2023-07-31T08:39:45;5.40;;;5.10;;
27293;SDS011;14785;52.556;13.430;2023-07-31T08:42:10;5.53;;;5.20;;
27293;SDS011;14785;52.556;13.430;2023-07-31T08:44:35;5.30;;;4.90;;
27293;SDS011;14785;52.556;13.430;2023-07-31T08:47:02;5.45;;;5.15;;
27293;SDS011;14785;52.556;13.430;2023-07-31T08:49:28;5.40;;;5.10;;
27293;SDS011;14785;52.556;13.430;2023-07-31T08:51:55;5.85;;;5.45;;
27293;SDS011;14785;52.556;13.430;2023-07-31T08:54:23;4.93;;;4.63;;
27293;SDS011;14785;52.556;13.430;2023-07-31T08:56:48;5.27;;;4.87;;
27293;SDS011;14785;52.556;13.430;2023-07-31T08:59:16;4.82;;;4.53;;
27293;SDS011;14785;52.556;13.430;2023-07-31T09:01:43;5.18;;;4.88;;
27293;SDS011;14785;52.556;13.430;2023-07-31T09:04:14;4.75;;;4.40;;
27293;SDS011;14785;52.556;13.430;2023-07-31T09:06:41;4.40;;;4.18;;
27293;SDS011;14785;52.556;13.430;2023-07-31T09:09:08;4.43;;;4.13;;
27293;SDS011;14785;52.556;13.430;2023-07-31T09:11:34;5.03;;;4.55;;
27293;SDS011;14785;52.556;13.430;2023-07-31T09:14:00;4.20;;;4.00;;
27293;SDS011;14785;52.556;13.430;2023-07-31T09:16:28;4.00;;;3.80;;
27293;SDS011;14785;52.556;13.430;2023-07-31T09:18:57;4.40;;;4.10;;
27293;SDS011;14785;52.556;13.430;2023-07-31T09:21:23;4.32;;;4.03;;
27293;SDS011;14785;52.556;13.430;2023-07-31T09:23:50;4.40;;;4.10;;
27293;SDS011;14785;52.556;13.430;2023-07-31T09:26:35;4.03;;;3.83;;
27293;SDS011;14785;52.556;13.430;2023-07-31T09:29:03;4.07;;;3.88;;
27293;SDS011;14785;52.556;13.430;2023-07-31T09:31:40;4.22;;;3.92;;
27293;SDS011;14785;52.556;13.430;2023-07-31T09:34:07;4.10;;;3.80;;
27293;SDS011;14785;52.556;13.430;2023-07-31T09:36:32;3.80;;;3.60;;
27293;SDS011;14785;52.556;13.430;2023-07-31T09:39:04;4.25;;;4.05;;
27293;SDS011;14785;52.556;13.430;2023-07-31T09:41:35;4.57;;;4.27;;
27293;SDS011;14785;52.556;13.430;2023-07-31T09:44:02;4.43;;;4.13;;
27293;SDS011;14785;52.556;13.430;2023-07-31T09:46:28;4.53;;;4.18;;
27293;SDS011;14785;52.556;13.430;2023-07-31T09:48:53;4.85;;;4.55;;
27293;SDS011;14785;52.556;13.430;2023-07-31T09:51:34;4.22;;;3.97;;
27293;SDS011;14785;52.556;13.430;2023-07-31T09:54:04;4.25;;;3.95;;
27293;SDS011;14785;52.556;13.430;2023-07-31T09:59:07;3.80;;;3.60;;
27293;SDS011;14785;52.556;13.430;2023-07-31T10:01:37;3.80;;;3.58;;
27293;SDS011;14785;52.556;13.430;2023-07-31T10:06:29;3.92;;;3.63;;
27293;SDS011;14785;52.556;13.430;2023-07-31T10:08:55;4.00;;;3.70;;
27293;SDS011;14785;52.556;13.430;2023-07-31T10:11:22;3.97;;;3.78;;
27293;SDS011;14785;52.556;13.430;2023-07-31T10:13:52;3.60;;;3.40;;
27293;SDS011;14785;52.556;13.430;2023-07-31T10:16:20;3.85;;;3.58;;
27293;SDS011;14785;52.556;13.430;2023-07-31T10:18:47;3.70;;;3.50;;
27293;SDS011;14785;52.556;13.430;2023-07-31T10:21:15;3.40;;;3.20;;
27293;SDS011;14785;52.556;13.430;2023-07-31T10:23:41;3.50;;;3.30;;
27293;SDS011;14785;52.556;13.430;2023-07-31T10:28:33;3.88;;;3.60;;
27293;SDS011;14785;52.556;13.430;2023-07-31T10:31:00;3.83;;;3.63;;
27293;SDS011;14785;52.556;13.430;2023-07-31T10:33:26;3.70;;;3.40;;
27293;SDS011;14785;52.556;13.430;2023-07-31T10:38:37;3.60;;;3.40;;
27293;SDS011;14785;52.556;13.430;2023-07-31T10:41:09;3.80;;;3.60;;
27293;SDS011;14785;52.556;13.430;2023-07-31T10:43:35;3.40;;;3.20;;
27293;SDS011;14785;52.556;13.430;2023-07-31T10:46:12;3.67;;;3.47;;
27293;SDS011;14785;52.556;13.430;2023-07-31T10:48:40;3.50;;;3.30;;
27293;SDS011;14785;52.556;13.430;2023-07-31T10:51:10;3.70;;;3.50;;
27293;SDS011;14785;52.556;13.430;2023-07-31T10:53:41;3.65;;;3.45;;
27293;SDS011;14785;52.556;13.430;2023-07-31T10:56:09;3.30;;;3.20;;
27293;SDS011;14785;52.556;13.430;2023-07-31T10:58:40;3.50;;;3.30;;
27293;SDS011;14785;52.556;13.430;2023-07-31T11:01:09;3.80;;;3.60;;
27293;SDS011;14785;52.556;13.430;2023-07-31T11:03:56;3.90;;;3.70;;
27293;SDS011;14785;52.556;13.430;2023-07-31T11:06:23;3.85;;;3.65;;
27293;SDS011;14785;52.556;13.430;2023-07-31T11:08:49;4.28;;;4.07;;
27293;SDS011;14785;52.556;13.430;2023-07-31T11:11:18;4.82;;;4.60;;
27293;SDS011;14785;52.556;13.430;2023-07-31T11:16:21;5.47;;;5.18;;
27293;SDS011;14785;52.556;13.430;2023-07-31T11:18:48;5.20;;;4.90;;
27293;SDS011;14785;52.556;13.430;2023-07-31T11:21:21;5.03;;;4.72;;
27293;SDS011;14785;52.556;13.430;2023-07-31T11:23:51;5.03;;;4.75;;
27293;SDS011;14785;52.556;13.430;2023-07-31T11:26:18;5.07;;;4.80;;
27293;SDS011;14785;52.556;13.430;2023-07-31T11:28:48;5.20;;;4.80;;
27293;SDS011;14785;52.556;13.430;2023-07-31T11:31:14;4.60;;;4.40;;
27293;SDS011;14785;52.556;13.430;2023-07-31T11:33:40;4.90;;;4.60;;
27293;SDS011;14785;52.556;13.430;2023-07-31T11:36:14;5.33;;;4.93;;
27293;SDS011;14785;52.556;13.430;2023-07-31T11:38:40;4.63;;;4.40;;
27293;SDS011;14785;52.556;13.430;2023-07-31T11:41:06;4.57;;;4.37;;
27293;SDS011;14785;52.556;13.430;2023-07-31T11:43:31;5.00;;;4.70;;
27293;SDS011;14785;52.556;13.430;2023-07-31T11:45:58;4.72;;;4.47;;
27293;SDS011;14785;52.556;13.430;2023-07-31T11:48:34;4.80;;;4.60;;
27293;SDS011;14785;52.556;13.430;2023-07-31T11:51:05;4.82;;;4.53;;
27293;SDS011;14785;52.556;13.430;2023-07-31T11:53:48;4.50;;;4.30;;
27293;SDS011;14785;52.556;13.430;2023-07-31T11:56:17;4.22;;;3.92;;
27293;SDS011;14785;52.556;13.430;2023-07-31T11:58:48;4.47;;;4.10;;
27293;SDS011;14785;52.556;13.430;2023-07-31T12:01:22;4.20;;;3.90;;
27293;SDS011;14785;52.556;13.430;2023-07-31T12:03:49;4.38;;;4.18;;
27293;SDS011;14785;52.556;13.430;2023-07-31T12:06:15;4.70;;;4.50;;
27293;SDS011;14785;52.556;13.430;2023-07-31T12:08:41;4.83;;;4.37;;
27293;SDS011;14785;52.556;13.430;2023-07-31T12:11:08;4.90;;;4.70;;
27293;SDS011;14785;52.556;13.430;2023-07-31T12:13:38;4.60;;;4.40;;
27293;SDS011;14785;52.556;13.430;2023-07-31T12:16:04;4.85;;;4.55;;
27293;SDS011;14785;52.556;13.430;2023-07-31T12:18:33;4.90;;;4.60;;
27293;SDS011;14785;52.556;13.430;2023-07-31T12:21:04;4.68;;;4.47;;
27293;SDS011;14785;52.556;13.430;2023-07-31T12:23:31;4.82;;;4.57;;
27293;SDS011;14785;52.556;13.430;2023-07-31T12:28:30;4.50;;;4.15;;
27293;SDS011;14785;52.556;13.430;2023-07-31T12:30:58;4.70;;;4.35;;
27293;SDS011;14785;52.556;13.430;2023-07-31T12:33:29;4.35;;;4.15;;
27293;SDS011;14785;52.556;13.430;2023-07-31T12:36:00;3.97;;;3.78;;
27293;SDS011;14785;52.556;13.430;2023-07-31T12:38:26;3.90;;;3.72;;
27293;SDS011;14785;52.556;13.430;2023-07-31T12:40:52;4.30;;;4.10;;
27293;SDS011;14785;52.556;13.430;2023-07-31T12:43:17;4.20;;;4.00;;
27293;SDS011;14785;52.556;13.430;2023-07-31T12:45:43;4.60;;;4.20;;
27293;SDS011;14785;52.556;13.430;2023-07-31T12:48:08;4.40;;;4.10;;
27293;SDS011;14785;52.556;13.430;2023-07-31T12:50:33;4.23;;;4.03;;
27293;SDS011;14785;52.556;13.430;2023-07-31T12:53:01;4.32;;;4.13;;
27293;SDS011;14785;52.556;13.430;2023-07-31T12:55:28;5.07;;;4.72;;
27293;SDS011;14785;52.556;13.430;2023-07-31T12:57:53;4.32;;;4.13;;
27293;SDS011;14785;52.556;13.430;2023-07-31T13:00:19;4.47;;;4.27;;
27293;SDS011;14785;52.556;13.430;2023-07-31T13:02:44;4.20;;;4.00;;
27293;SDS011;14785;52.556;13.430;2023-07-31T13:05:10;4.70;;;4.50;;
27293;SDS011;14785;52.556;13.430;2023-07-31T13:07:35;4.43;;;4.23;;
27293;SDS011;14785;52.556;13.430;2023-07-31T13:10:01;4.40;;;4.20;;
27293;SDS011;14785;52.556;13.430;2023-07-31T13:12:27;4.43;;;4.23;;
27293;SDS011;14785;52.556;13.430;2023-07-31T13:14:52;4.07;;;3.87;;
27293;SDS011;14785;52.556;13.430;2023-07-31T13:17:18;4.10;;;3.90;;
27293;SDS011;14785;52.556;13.430;2023-07-31T13:19:44;4.15;;;3.95;;
27293;SDS011;14785;52.556;13.430;2023-07-31T13:22:10;4.03;;;3.83;;
27293;SDS011;14785;52.556;13.430;2023-07-31T13:24:36;4.20;;;3.90;;
27293;SDS011;14785;52.556;13.430;2023-07-31T13:27:01;4.17;;;3.97;;
27293;SDS011;14785;52.556;13.430;2023-07-31T13:29:26;4.57;;;4.27;;
27293;SDS011;14785;52.556;13.430;2023-07-31T13:31:52;4.57;;;4.30;;
27293;SDS011;14785;52.556;13.430;2023-07-31T13:34:18;4.85;;;4.63;;
27293;SDS011;14785;52.556;13.430;2023-07-31T13:36:43;5.07;;;4.85;;
27293;SDS011;14785;52.556;13.430;2023-07-31T13:39:09;4.95;;;4.75;;
27293;SDS011;14785;52.556;13.430;2023-07-31T13:41:34;4.80;;;4.60;;
27293;SDS011;14785;52.556;13.430;2023-07-31T13:44:00;4.60;;;4.40;;
27293;SDS011;14785;52.556;13.430;2023-07-31T13:46:25;5.00;;;4.70;;
27293;SDS011;14785;52.556;13.430;2023-07-31T13:48:51;4.80;;;4.60;;
27293;SDS011;14785;52.556;13.430;2023-07-31T13:51:19;5.05;;;4.80;;
27293;SDS011;14785;52.556;13.430;2023-07-31T13:53:45;4.63;;;4.43;;
27293;SDS011;14785;52.556;13.430;2023-07-31T13:56:10;5.13;;;4.90;;
27293;SDS011;14785;52.556;13.430;2023-07-31T13:58:35;5.03;;;4.73;;
27293;SDS011;14785;52.556;13.430;2023-07-31T14:01:01;5.30;;;5.00;;
27293;SDS011;14785;52.556;13.430;2023-07-31T14:03:26;5.00;;;4.77;;
27293;SDS011;14785;52.556;13.430;2023-07-31T14:05:52;4.53;;;4.33;;
27293;SDS011;14785;52.556;13.430;2023-07-31T14:08:17;4.95;;;4.68;;
27293;SDS011;14785;52.556;13.430;2023-07-31T14:10:44;4.80;;;4.57;;
27293;SDS011;14785;52.556;13.430;2023-07-31T14:13:09;4.90;;;4.60;;
27293;SDS011;14785;52.556;13.430;2023-07-31T14:15:35;4.90;;;4.70;;
27293;SDS011;14785;52.556;13.430;2023-07-31T14:18:01;4.78;;;4.47;;
27293;SDS011;14785;52.556;13.430;2023-07-31T14:20:27;5.03;;;4.25;;
27293;SDS011;14785;52.556;13.430;2023-07-31T14:22:52;5.13;;;4.90;;
27293;SDS011;14785;52.556;13.430;2023-07-31T14:25:18;5.10;;;4.90;;
27293;SDS011;14785;52.556;13.430;2023-07-31T14:27:43;5.07;;;4.77;;
27293;SDS011;14785;52.556;13.430;2023-07-31T14:30:09;4.50;;;4.30;;
27293;SDS011;14785;52.556;13.430;2023-07-31T14:32:34;5.55;;;5.15;;
27293;SDS011;14785;52.556;13.430;2023-07-31T14:35:02;5.00;;;4.70;;
27293;SDS011;14785;52.556;13.430;2023-07-31T14:37:28;4.95;;;4.75;;
27293;SDS011;14785;52.556;13.430;2023-07-31T14:40:02;4.43;;;4.22;;
27293;SDS011;14785;52.556;13.430;2023-07-31T14:42:27;5.00;;;4.80;;
27293;SDS011;14785;52.556;13.430;2023-07-31T14:44:52;4.40;;;4.20;;
27293;SDS011;14785;52.556;13.430;2023-07-31T14:47:18;5.03;;;4.60;;
27293;SDS011;14785;52.556;13.430;2023-07-31T14:49:43;5.27;;;5.07;;
27293;SDS011;14785;52.556;13.430;2023-07-31T14:52:08;5.03;;;4.77;;
27293;SDS011;14785;52.556;13.430;2023-07-31T14:54:34;4.93;;;4.72;;
27293;SDS011;14785;52.556;13.430;2023-07-31T14:56:59;4.80;;;4.60;;
27293;SDS011;14785;52.556;13.430;2023-07-31T14:59:25;5.17;;;4.87;;
27293;SDS011;14785;52.556;13.430;2023-07-31T15:01:51;4.50;;;4.20;;
27293;SDS011;14785;52.556;13.430;2023-07-31T15:04:17;4.50;;;4.30;;
27293;SDS011;14785;52.556;13.430;2023-07-31T15:06:43;5.55;;;4.30;;
27293;SDS011;14785;52.556;13.430;2023-07-31T15:09:08;3.90;;;3.50;;